Brandamore, PA

2:32 PM EST on December 21, 2014 (GMT -0500)
Icedale | Change Station
CLOSE
Current Station
Personal Weather Station
Location: Honey Brook, PA
Elevation: 825 ft
Nearby Weather Stations

Elev 825 ft 40.07 °N, 75.85 °W | Updated 2 minutes ago

Mostly Cloudy
Mostly Cloudy
32.7 °F
Feels Like 33 °F
N
1.0
Wind Variable Wind from NNW
Gusts 1.0 mph

Today
High -- | Low -- °F
--% Chance of Precip.
Yesterday
High -- | Low -- °F
Precip. -- in
7:21 AM 4:41 PM
Waning Crescent, 0% visible
Pressure 30.28 in
Visibility 9.0 miles
Clouds Scattered Clouds 2500 ft
Windchill 33 °F
Dew Point 26 °F
Humidity 76%
Rainfall 0.00 in
Snow Depth Not available.
UV 1 out of 12
Pollen .10 out of 12
Air Quality Not available.
Flu Activity Not available.
METAR KMQS 211915Z AUTO 36006KT 9SM SCT025 02/M04 A3028 RMK AO2

More Conditions Fewer Conditions

Pressure 30.28 in
Visibility 9.0 miles
Clouds Scattered Clouds 2500 ft
Windchill 33 °F
Dew Point 26 °F
Humidity 76%
Rainfall 0.00 in
Snow Depth Not available.
UV 1 out of 12
Pollen .10 out of 12
Air Quality Not available.
Flu Activity Not available.
METAR KMQS 211915Z AUTO 36006KT 9SM SCT025 02/M04 A3028 RMK AO2

More Conditions Fewer Conditions

10-Day Weather Forecast

Almanac

Astronomy

Dec. 21, 2014 Rise Set
Actual Time
Civil Twilight
Nautical Twilight
Astronomical Twilight
Moon
Length of Visible Light
Length of Day
Tomorrow will be .
, % of the Moon is Illuminated

Today's Extremes

State Highs State Lows

Community

WunderPhotos

Upload Photos

1,779,467 photos uploaded!

WunderBlogs® & News

Nearby

Air Quality

  Air Quality AQ Index Pollutant
Not available.

Snow Depth

Station Depth Elevation

Earthquake Activity

City Distance Mag. Time & Date
Minimum magnitude displayed is 2.5.

Coastal Water Temperatures

Place Temperature

Nearby Weather Stations